sensor_id;sensor_type;location;lat;lon;timestamp;temperature;humidity
5930;DHT22;2990;48.746;9.236;2022-08-11T00:00:34;20.10;1.00
5930;DHT22;2990;48.746;9.236;2022-08-11T00:03:07;20.10;1.00
5930;DHT22;2990;48.746;9.236;2022-08-11T00:05:51;20.00;1.00
5930;DHT22;2990;48.746;9.236;2022-08-11T00:08:23;20.00;1.00
5930;DHT22;2990;48.746;9.236;2022-08-11T00:10:55;20.00;1.00
5930;DHT22;2990;48.746;9.236;2022-08-11T00:13:22;19.90;1.00
5930;DHT22;2990;48.746;9.236;2022-08-11T00:15:55;19.90;1.00
5930;DHT22;2990;48.746;9.236;2022-08-11T00:18:21;19.90;1.00
5930;DHT22;2990;48.746;9.236;2022-08-11T00:20:47;19.70;1.00
5930;DHT22;2990;48.746;9.236;2022-08-11T00:23:15;19.80;1.00
5930;DHT22;2990;48.746;9.236;2022-08-11T00:25:44;19.80;1.00
5930;DHT22;2990;48.746;9.236;2022-08-11T00:28:24;19.80;1.00
5930;DHT22;2990;48.746;9.236;2022-08-11T00:30:51;19.80;1.00
5930;DHT22;2990;48.746;9.236;2022-08-11T00:33:21;19.80;1.00
5930;DHT22;2990;48.746;9.236;2022-08-11T00:35:49;19.80;1.00
5930;DHT22;2990;48.746;9.236;2022-08-11T00:38:16;19.80;1.00
5930;DHT22;2990;48.746;9.236;2022-08-11T00:40:58;19.70;1.00
5930;DHT22;2990;48.746;9.236;2022-08-11T00:43:56;19.70;1.00
5930;DHT22;2990;48.746;9.236;2022-08-11T00:52:07;19.60;1.00
5930;DHT22;2990;48.746;9.236;2022-08-11T00:57:50;19.50;1.00
5930;DHT22;2990;48.746;9.236;2022-08-11T01:00:25;19.50;1.00
5930;DHT22;2990;48.746;9.236;2022-08-11T01:03:26;19.40;1.00
5930;DHT22;2990;48.746;9.236;2022-08-11T01:06:20;19.40;1.00
5930;DHT22;2990;48.746;9.236;2022-08-11T01:09:24;19.40;1.00
5930;DHT22;2990;48.746;9.236;2022-08-11T01:15:06;19.40;1.00
5930;DHT22;2990;48.746;9.236;2022-08-11T01:21:05;19.40;1.00
5930;DHT22;2990;48.746;9.236;2022-08-11T01:46:38;19.20;1.00
5930;DHT22;2990;48.746;9.236;2022-08-11T01:52:33;19.10;1.00
5930;DHT22;2990;48.746;9.236;2022-08-11T01:58:04;19.00;1.00
5930;DHT22;2990;48.746;9.236;2022-08-11T02:00:39;19.00;1.00
5930;DHT22;2990;48.746;9.236;2022-08-11T02:03:19;19.00;1.00
5930;DHT22;2990;48.746;9.236;2022-08-11T02:08:46;18.90;1.00
5930;DHT22;2990;48.746;9.236;2022-08-11T02:17:06;18.80;1.00
5930;DHT22;2990;48.746;9.236;2022-08-11T02:23:04;18.80;1.00
5930;DHT22;2990;48.746;9.236;2022-08-11T02:29:08;18.70;1.00
5930;DHT22;2990;48.746;9.236;2022-08-11T02:43:04;18.60;1.00
5930;DHT22;2990;48.746;9.236;2022-08-11T02:46:20;18.60;1.00
5930;DHT22;2990;48.746;9.236;2022-08-11T02:52:07;18.40;1.00
5930;DHT22;2990;48.746;9.236;2022-08-11T02:54:48;18.40;1.00
5930;DHT22;2990;48.746;9.236;2022-08-11T02:57:40;18.40;1.00
5930;DHT22;2990;48.746;9.236;2022-08-11T03:00:17;18.30;1.00
5930;DHT22;2990;48.746;9.236;2022-08-11T03:03:22;18.30;1.00
5930;DHT22;2990;48.746;9.236;2022-08-11T03:08:43;18.20;1.00
5930;DHT22;2990;48.746;9.236;2022-08-11T03:16:57;18.40;1.00
5930;DHT22;2990;48.746;9.236;2022-08-11T03:28:01;18.40;1.00
5930;DHT22;2990;48.746;9.236;2022-08-11T03:30:39;18.30;1.00
5930;DHT22;2990;48.746;9.236;2022-08-11T03:33:23;18.30;1.00
5930;DHT22;2990;48.746;9.236;2022-08-11T03:50:54;18.00;1.00
5930;DHT22;2990;48.746;9.236;2022-08-11T03:53:34;18.00;1.00
5930;DHT22;2990;48.746;9.236;2022-08-11T03:59:21;17.90;1.00
5930;DHT22;2990;48.746;9.236;2022-08-11T04:33:48;17.60;1.00
5930;DHT22;2990;48.746;9.236;2022-08-11T04:48:43;17.90;1.00
5930;DHT22;2990;48.746;9.236;2022-08-11T04:55:04;18.00;1.00
5930;DHT22;2990;48.746;9.236;2022-08-11T04:58:18;18.00;1.00
5930;DHT22;2990;48.746;9.236;2022-08-11T05:10:08;18.30;1.00
5930;DHT22;2990;48.746;9.236;2022-08-11T05:13:26;18.40;1.00
5930;DHT22;2990;48.746;9.236;2022-08-11T05:16:14;18.50;1.00
5930;DHT22;2990;48.746;9.236;2022-08-11T05:19:00;18.60;1.00
5930;DHT22;2990;48.746;9.236;2022-08-11T05:21:50;18.70;1.00
5930;DHT22;2990;48.746;9.236;2022-08-11T05:24:47;18.80;1.00
5930;DHT22;2990;48.746;9.236;2022-08-11T05:27:39;18.90;1.00
5930;DHT22;2990;48.746;9.236;2022-08-11T05:30:28;19.00;1.00
5930;DHT22;2990;48.746;9.236;2022-08-11T05:34:00;19.00;1.00
5930;DHT22;2990;48.746;9.236;2022-08-11T05:39:45;19.10;1.00
5930;DHT22;2990;48.746;9.236;2022-08-11T05:42:31;19.20;1.00
5930;DHT22;2990;48.746;9.236;2022-08-11T05:45:17;19.30;1.00
5930;DHT22;2990;48.746;9.236;2022-08-11T05:48:03;19.50;1.00
5930;DHT22;2990;48.746;9.236;2022-08-11T05:50:52;19.50;1.00
5930;DHT22;2990;48.746;9.236;2022-08-11T05:53:50;19.70;1.00
5930;DHT22;2990;48.746;9.236;2022-08-11T05:56:42;19.70;1.00
5930;DHT22;2990;48.746;9.236;2022-08-11T05:59:17;19.80;1.00
5930;DHT22;2990;48.746;9.236;2022-08-11T06:01:43;19.90;1.00
5930;DHT22;2990;48.746;9.236;2022-08-11T06:04:17;20.00;1.00
5930;DHT22;2990;48.746;9.236;2022-08-11T06:07:25;20.00;1.00
5930;DHT22;2990;48.746;9.236;2022-08-11T06:09:51;20.20;1.00
5930;DHT22;2990;48.746;9.236;2022-08-11T06:12:22;20.20;1.00
5930;DHT22;2990;48.746;9.236;2022-08-11T06:14:53;20.20;1.00
5930;DHT22;2990;48.746;9.236;2022-08-11T06:17:24;20.40;1.00
5930;DHT22;2990;48.746;9.236;2022-08-11T06:19:50;20.50;1.00
5930;DHT22;2990;48.746;9.236;2022-08-11T06:22:25;20.60;1.00
5930;DHT22;2990;48.746;9.236;2022-08-11T06:24:59;20.70;1.00
5930;DHT22;2990;48.746;9.236;2022-08-11T06:27:26;20.60;1.00
5930;DHT22;2990;48.746;9.236;2022-08-11T06:29:54;20.70;1.00
5930;DHT22;2990;48.746;9.236;2022-08-11T06:32:26;20.70;1.00
5930;DHT22;2990;48.746;9.236;2022-08-11T06:35:04;20.80;1.00
5930;DHT22;2990;48.746;9.236;2022-08-11T06:43:29;21.10;1.00
5930;DHT22;2990;48.746;9.236;2022-08-11T06:46:06;21.20;1.00
5930;DHT22;2990;48.746;9.236;2022-08-11T06:48:32;21.30;1.00
5930;DHT22;2990;48.746;9.236;2022-08-11T06:51:02;21.30;1.00
5930;DHT22;2990;48.746;9.236;2022-08-11T06:53:42;21.40;1.00
5930;DHT22;2990;48.746;9.236;2022-08-11T06:56:09;21.40;1.00
5930;DHT22;2990;48.746;9.236;2022-08-11T06:58:53;21.50;1.00
5930;DHT22;2990;48.746;9.236;2022-08-11T07:04:42;21.50;1.00
5930;DHT22;2990;48.746;9.236;2022-08-11T07:07:36;21.50;1.00
5930;DHT22;2990;48.746;9.236;2022-08-11T07:13:18;21.80;1.00
5930;DHT22;2990;48.746;9.236;2022-08-11T07:16:05;21.80;1.00
5930;DHT22;2990;48.746;9.236;2022-08-11T07:18:34;21.90;1.00
5930;DHT22;2990;48.746;9.236;2022-08-11T07:21:26;22.00;1.00
5930;DHT22;2990;48.746;9.236;2022-08-11T07:24:15;21.80;1.00
5930;DHT22;2990;48.746;9.236;2022-08-11T07:27:00;22.00;1.00
5930;DHT22;2990;48.746;9.236;2022-08-11T07:29:49;22.20;1.00
5930;DHT22;2990;48.746;9.236;2022-08-11T07:32:21;22.30;1.00
5930;DHT22;2990;48.746;9.236;2022-08-11T07:34:52;22.50;1.00
5930;DHT22;2990;48.746;9.236;2022-08-11T07:37:22;22.50;1.00
5930;DHT22;2990;48.746;9.236;2022-08-11T07:39:49;22.60;1.00
5930;DHT22;2990;48.746;9.236;2022-08-11T07:42:19;22.80;1.00
5930;DHT22;2990;48.746;9.236;2022-08-11T07:44:46;22.80;1.00
5930;DHT22;2990;48.746;9.236;2022-08-11T07:47:32;22.80;1.00
5930;DHT22;2990;48.746;9.236;2022-08-11T07:50:18;23.00;1.00
5930;DHT22;2990;48.746;9.236;2022-08-11T07:53:03;23.00;1.00
5930;DHT22;2990;48.746;9.236;2022-08-11T07:55:28;23.10;1.00
5930;DHT22;2990;48.746;9.236;2022-08-11T07:57:59;23.30;1.00
5930;DHT22;2990;48.746;9.236;2022-08-11T08:03:34;23.60;1.00
5930;DHT22;2990;48.746;9.236;2022-08-11T08:06:19;23.70;1.00
5930;DHT22;2990;48.746;9.236;2022-08-11T08:09:05;23.90;1.00
5930;DHT22;2990;48.746;9.236;2022-08-11T08:11:50;23.90;1.00
5930;DHT22;2990;48.746;9.236;2022-08-11T08:14:34;24.00;1.00
5930;DHT22;2990;48.746;9.236;2022-08-11T08:17:20;24.20;1.00
5930;DHT22;2990;48.746;9.236;2022-08-11T08:20:05;24.30;1.00
5930;DHT22;2990;48.746;9.236;2022-08-11T08:22:33;24.50;1.00
5930;DHT22;2990;48.746;9.236;2022-08-11T08:24:59;24.70;1.00
5930;DHT22;2990;48.746;9.236;2022-08-11T08:27:25;24.60;1.00
5930;DHT22;2990;48.746;9.236;2022-08-11T08:29:51;24.70;1.00
5930;DHT22;2990;48.746;9.236;2022-08-11T08:32:41;24.90;1.00
5930;DHT22;2990;48.746;9.236;2022-08-11T08:35:10;24.80;1.00
5930;DHT22;2990;48.746;9.236;2022-08-11T08:37:36;25.00;1.00
5930;DHT22;2990;48.746;9.236;2022-08-11T08:40:03;25.10;1.00
5930;DHT22;2990;48.746;9.236;2022-08-11T08:42:36;25.20;1.00
5930;DHT22;2990;48.746;9.236;2022-08-11T08:45:07;24.90;1.00
5930;DHT22;2990;48.746;9.236;2022-08-11T08:47:41;25.10;1.00
5930;DHT22;2990;48.746;9.236;2022-08-11T08:50:12;25.30;1.00
5930;DHT22;2990;48.746;9.236;2022-08-11T08:52:43;25.30;1.00
5930;DHT22;2990;48.746;9.236;2022-08-11T08:55:15;25.40;1.00
5930;DHT22;2990;48.746;9.236;2022-08-11T08:57:43;25.40;1.00
5930;DHT22;2990;48.746;9.236;2022-08-11T09:00:09;25.50;1.00
5930;DHT22;2990;48.746;9.236;2022-08-11T09:02:35;25.60;1.00
5930;DHT22;2990;48.746;9.236;2022-08-11T09:05:03;25.70;1.00
5930;DHT22;2990;48.746;9.236;2022-08-11T09:07:29;25.70;1.00
5930;DHT22;2990;48.746;9.236;2022-08-11T09:09:57;25.70;1.00
5930;DHT22;2990;48.746;9.236;2022-08-11T09:12:28;26.00;1.00
5930;DHT22;2990;48.746;9.236;2022-08-11T09:14:55;26.20;1.00
5930;DHT22;2990;48.746;9.236;2022-08-11T09:17:34;26.10;1.00
5930;DHT22;2990;48.746;9.236;2022-08-11T09:20:05;26.30;1.00
5930;DHT22;2990;48.746;9.236;2022-08-11T09:22:34;26.40;1.00
5930;DHT22;2990;48.746;9.236;2022-08-11T09:25:20;26.50;1.00
5930;DHT22;2990;48.746;9.236;2022-08-11T09:28:08;26.50;1.00
5930;DHT22;2990;48.746;9.236;2022-08-11T09:30:34;26.50;1.00
5930;DHT22;2990;48.746;9.236;2022-08-11T09:33:03;26.60;1.00
5930;DHT22;2990;48.746;9.236;2022-08-11T09:35:32;26.60;1.00
5930;DHT22;2990;48.746;9.236;2022-08-11T09:37:59;26.60;1.00
5930;DHT22;2990;48.746;9.236;2022-08-11T09:40:46;26.50;1.00
5930;DHT22;2990;48.746;9.236;2022-08-11T09:43:14;26.30;1.00
5930;DHT22;2990;48.746;9.236;2022-08-11T09:46:00;26.50;1.00
5930;DHT22;2990;48.746;9.236;2022-08-11T09:48:28;26.60;1.00
5930;DHT22;2990;48.746;9.236;2022-08-11T09:50:57;26.60;1.00
5930;DHT22;2990;48.746;9.236;2022-08-11T09:53:26;26.60;1.00
5930;DHT22;2990;48.746;9.236;2022-08-11T09:55:53;26.80;1.00
5930;DHT22;2990;48.746;9.236;2022-08-11T09:58:20;26.90;1.00
5930;DHT22;2990;48.746;9.236;2022-08-11T10:00:49;27.00;1.00
5930;DHT22;2990;48.746;9.236;2022-08-11T10:03:21;26.90;1.00
5930;DHT22;2990;48.746;9.236;2022-08-11T10:05:52;26.90;1.00
5930;DHT22;2990;48.746;9.236;2022-08-11T10:08:38;26.80;1.00
5930;DHT22;2990;48.746;9.236;2022-08-11T10:11:11;27.00;1.00
5930;DHT22;2990;48.746;9.236;2022-08-11T10:13:43;27.00;1.00
5930;DHT22;2990;48.746;9.236;2022-08-11T10:16:29;27.20;1.00
5930;DHT22;2990;48.746;9.236;2022-08-11T10:18:59;27.30;1.00
5930;DHT22;2990;48.746;9.236;2022-08-11T10:21:41;27.10;1.00
5930;DHT22;2990;48.746;9.236;2022-08-11T10:24:09;27.20;1.00
5930;DHT22;2990;48.746;9.236;2022-08-11T10:26:56;27.30;1.00
5930;DHT22;2990;48.746;9.236;2022-08-11T10:29:28;27.30;1.00
5930;DHT22;2990;48.746;9.236;2022-08-11T10:32:13;27.00;1.00
5930;DHT22;2990;48.746;9.236;2022-08-11T10:35:01;27.00;1.00
5930;DHT22;2990;48.746;9.236;2022-08-11T10:37:27;27.30;1.00
5930;DHT22;2990;48.746;9.236;2022-08-11T10:39:59;27.30;1.00
5930;DHT22;2990;48.746;9.236;2022-08-11T10:42:25;27.50;1.00
5930;DHT22;2990;48.746;9.236;2022-08-11T10:45:10;27.60;1.00
5930;DHT22;2990;48.746;9.236;2022-08-11T10:47:56;27.50;1.00
5930;DHT22;2990;48.746;9.236;2022-08-11T10:50:22;27.60;1.00
5930;DHT22;2990;48.746;9.236;2022-08-11T10:53:08;27.80;1.00
5930;DHT22;2990;48.746;9.236;2022-08-11T10:55:53;27.50;1.00
5930;DHT22;2990;48.746;9.236;2022-08-11T10:58:38;27.40;1.00
5930;DHT22;2990;48.746;9.236;2022-08-11T11:03:53;27.70;1.00
5930;DHT22;2990;48.746;9.236;2022-08-11T11:08:52;27.60;1.00
5930;DHT22;2990;48.746;9.236;2022-08-11T11:11:26;27.70;1.00
5930;DHT22;2990;48.746;9.236;2022-08-11T11:14:17;27.80;1.00
5930;DHT22;2990;48.746;9.236;2022-08-11T11:17:06;27.90;1.00
5930;DHT22;2990;48.746;9.236;2022-08-11T11:19:40;28.10;1.00
5930;DHT22;2990;48.746;9.236;2022-08-11T11:22:07;28.00;1.00
5930;DHT22;2990;48.746;9.236;2022-08-11T11:25:03;27.90;1.00
5930;DHT22;2990;48.746;9.236;2022-08-11T11:27:50;27.80;1.00
5930;DHT22;2990;48.746;9.236;2022-08-11T11:30:18;28.00;1.00
5930;DHT22;2990;48.746;9.236;2022-08-11T11:33:07;27.90;1.00
5930;DHT22;2990;48.746;9.236;2022-08-11T11:38:22;28.20;1.00
5930;DHT22;2990;48.746;9.236;2022-08-11T11:40:48;28.30;1.00
5930;DHT22;2990;48.746;9.236;2022-08-11T11:43:35;28.40;1.00
5930;DHT22;2990;48.746;9.236;2022-08-11T11:46:02;28.30;1.00
5930;DHT22;2990;48.746;9.236;2022-08-11T11:48:30;28.40;1.00
5930;DHT22;2990;48.746;9.236;2022-08-11T11:50:56;28.50;1.00
5930;DHT22;2990;48.746;9.236;2022-08-11T11:53:23;28.70;1.00
5930;DHT22;2990;48.746;9.236;2022-08-11T11:55:49;28.50;1.00
5930;DHT22;2990;48.746;9.236;2022-08-11T11:58:16;28.20;1.00
5930;DHT22;2990;48.746;9.236;2022-08-11T12:01:02;28.50;1.00
5930;DHT22;2990;48.746;9.236;2022-08-11T12:03:48;28.80;1.00
5930;DHT22;2990;48.746;9.236;2022-08-11T12:06:16;29.20;1.00
5930;DHT22;2990;48.746;9.236;2022-08-11T12:08:43;29.40;1.00
5930;DHT22;2990;48.746;9.236;2022-08-11T12:11:12;29.30;1.00
5930;DHT22;2990;48.746;9.236;2022-08-11T12:14:01;29.30;1.00
5930;DHT22;2990;48.746;9.236;2022-08-11T12:16:28;29.30;1.00
5930;DHT22;2990;48.746;9.236;2022-08-11T12:19:00;29.00;1.00
5930;DHT22;2990;48.746;9.236;2022-08-11T12:21:28;28.70;1.00
5930;DHT22;2990;48.746;9.236;2022-08-11T12:23:56;28.60;1.00
5930;DHT22;2990;48.746;9.236;2022-08-11T12:26:41;28.80;1.00
5930;DHT22;2990;48.746;9.236;2022-08-11T12:29:20;28.90;1.00
5930;DHT22;2990;48.746;9.236;2022-08-11T12:31:52;28.80;1.00
5930;DHT22;2990;48.746;9.236;2022-08-11T12:34:19;28.90;1.00
5930;DHT22;2990;48.746;9.236;2022-08-11T12:36:49;29.10;1.00
5930;DHT22;2990;48.746;9.236;2022-08-11T12:39:20;29.00;1.00
5930;DHT22;2990;48.746;9.236;2022-08-11T12:42:09;28.80;1.00
5930;DHT22;2990;48.746;9.236;2022-08-11T12:44:54;28.70;1.00
5930;DHT22;2990;48.746;9.236;2022-08-11T12:47:42;28.80;1.00
5930;DHT22;2990;48.746;9.236;2022-08-11T12:50:30;28.70;1.00
5930;DHT22;2990;48.746;9.236;2022-08-11T12:53:14;28.70;1.00
5930;DHT22;2990;48.746;9.236;2022-08-11T12:55:41;28.80;1.00
5930;DHT22;2990;48.746;9.236;2022-08-11T12:58:26;28.60;1.00
5930;DHT22;2990;48.746;9.236;2022-08-11T13:00:52;28.60;1.00
5930;DHT22;2990;48.746;9.236;2022-08-11T13:03:37;28.70;1.00
5930;DHT22;2990;48.746;9.236;2022-08-11T13:06:23;28.60;1.00
5930;DHT22;2990;48.746;9.236;2022-08-11T13:08:49;28.70;1.00
5930;DHT22;2990;48.746;9.236;2022-08-11T13:11:16;28.60;1.00
5930;DHT22;2990;48.746;9.236;2022-08-11T13:14:01;28.70;1.00
5930;DHT22;2990;48.746;9.236;2022-08-11T13:16:31;28.90;1.00
5930;DHT22;2990;48.746;9.236;2022-08-11T13:19:17;29.10;1.00
5930;DHT22;2990;48.746;9.236;2022-08-11T13:21:43;29.20;1.00
5930;DHT22;2990;48.746;9.236;2022-08-11T13:24:10;29.10;1.00
5930;DHT22;2990;48.746;9.236;2022-08-11T13:26:37;29.10;1.00
5930;DHT22;2990;48.746;9.236;2022-08-11T13:29:03;28.90;1.00
5930;DHT22;2990;48.746;9.236;2022-08-11T13:31:29;29.10;1.00
5930;DHT22;2990;48.746;9.236;2022-08-11T13:33:57;29.30;1.00
5930;DHT22;2990;48.746;9.236;2022-08-11T13:36:24;29.40;1.00
5930;DHT22;2990;48.746;9.236;2022-08-11T13:38:54;29.60;1.00
5930;DHT22;2990;48.746;9.236;2022-08-11T13:41:20;29.70;1.00
5930;DHT22;2990;48.746;9.236;2022-08-11T13:44:08;29.60;1.00
5930;DHT22;2990;48.746;9.236;2022-08-11T13:46:34;29.50;1.00
5930;DHT22;2990;48.746;9.236;2022-08-11T13:49:00;29.30;1.00
5930;DHT22;2990;48.746;9.236;2022-08-11T13:51:26;29.30;1.00
5930;DHT22;2990;48.746;9.236;2022-08-11T13:54:11;28.90;1.00
5930;DHT22;2990;48.746;9.236;2022-08-11T13:56:44;28.90;1.00
5930;DHT22;2990;48.746;9.236;2022-08-11T13:59:12;29.00;1.00
5930;DHT22;2990;48.746;9.236;2022-08-11T14:01:41;29.00;1.00
5930;DHT22;2990;48.746;9.236;2022-08-11T14:04:11;28.80;1.00
5930;DHT22;2990;48.746;9.236;2022-08-11T14:06:40;28.70;1.00
5930;DHT22;2990;48.746;9.236;2022-08-11T14:09:09;28.60;1.00
5930;DHT22;2990;48.746;9.236;2022-08-11T14:11:37;28.60;1.00
5930;DHT22;2990;48.746;9.236;2022-08-11T14:14:26;28.70;1.00
5930;DHT22;2990;48.746;9.236;2022-08-11T14:16:56;28.80;1.00
5930;DHT22;2990;48.746;9.236;2022-08-11T14:19:25;28.80;1.00
5930;DHT22;2990;48.746;9.236;2022-08-11T14:21:52;29.00;1.00
5930;DHT22;2990;48.746;9.236;2022-08-11T14:24:42;29.00;1.00
5930;DHT22;2990;48.746;9.236;2022-08-11T14:27:10;29.10;1.00
5930;DHT22;2990;48.746;9.236;2022-08-11T14:29:38;29.10;1.00
5930;DHT22;2990;48.746;9.236;2022-08-11T14:32:07;29.20;1.00
5930;DHT22;2990;48.746;9.236;2022-08-11T14:34:34;29.20;1.00
5930;DHT22;2990;48.746;9.236;2022-08-11T14:37:06;29.30;1.00
5930;DHT22;2990;48.746;9.236;2022-08-11T14:39:35;29.10;1.00
5930;DHT22;2990;48.746;9.236;2022-08-11T14:42:04;29.10;1.00
5930;DHT22;2990;48.746;9.236;2022-08-11T14:44:51;29.00;1.00
5930;DHT22;2990;48.746;9.236;2022-08-11T14:47:40;29.00;1.00
5930;DHT22;2990;48.746;9.236;2022-08-11T14:50:11;29.00;1.00
5930;DHT22;2990;48.746;9.236;2022-08-11T14:53:05;28.70;1.00
5930;DHT22;2990;48.746;9.236;2022-08-11T14:55:36;28.70;1.00
5930;DHT22;2990;48.746;9.236;2022-08-11T14:58:24;28.90;1.00
5930;DHT22;2990;48.746;9.236;2022-08-11T15:00:52;28.80;1.00
5930;DHT22;2990;48.746;9.236;2022-08-11T15:03:19;28.80;1.00
5930;DHT22;2990;48.746;9.236;2022-08-11T15:05:53;28.70;1.00
5930;DHT22;2990;48.746;9.236;2022-08-11T15:08:21;28.50;1.00
5930;DHT22;2990;48.746;9.236;2022-08-11T15:11:11;28.60;1.00
5930;DHT22;2990;48.746;9.236;2022-08-11T15:14:06;28.70;1.00
5930;DHT22;2990;48.746;9.236;2022-08-11T15:16:32;28.80;1.00
5930;DHT22;2990;48.746;9.236;2022-08-11T15:19:19;28.90;1.00
5930;DHT22;2990;48.746;9.236;2022-08-11T15:21:48;29.00;1.00
5930;DHT22;2990;48.746;9.236;2022-08-11T15:24:33;29.00;1.00
5930;DHT22;2990;48.746;9.236;2022-08-11T15:27:04;29.10;1.00
5930;DHT22;2990;48.746;9.236;2022-08-11T15:29:52;29.10;1.00
5930;DHT22;2990;48.746;9.236;2022-08-11T15:32:38;29.20;1.00
5930;DHT22;2990;48.746;9.236;2022-08-11T15:35:24;29.00;1.00
5930;DHT22;2990;48.746;9.236;2022-08-11T15:38:11;28.70;1.00
5930;DHT22;2990;48.746;9.236;2022-08-11T15:40:39;28.90;1.00
5930;DHT22;2990;48.746;9.236;2022-08-11T15:43:28;29.00;1.00
5930;DHT22;2990;48.746;9.236;2022-08-11T15:46:18;29.10;1.00
5930;DHT22;2990;48.746;9.236;2022-08-11T15:48:56;29.00;1.00
5930;DHT22;2990;48.746;9.236;2022-08-11T15:51:42;28.70;1.00
5930;DHT22;2990;48.746;9.236;2022-08-11T15:54:13;28.70;1.00
5930;DHT22;2990;48.746;9.236;2022-08-11T15:56:47;28.60;1.00
5930;DHT22;2990;48.746;9.236;2022-08-11T15:59:15;28.60;1.00
5930;DHT22;2990;48.746;9.236;2022-08-11T16:02:02;28.70;1.00
5930;DHT22;2990;48.746;9.236;2022-08-11T16:04:48;28.70;1.00
5930;DHT22;2990;48.746;9.236;2022-08-11T16:07:25;28.60;1.00
5930;DHT22;2990;48.746;9.236;2022-08-11T16:10:09;28.50;1.00
5930;DHT22;2990;48.746;9.236;2022-08-11T16:12:39;28.40;1.00
5930;DHT22;2990;48.746;9.236;2022-08-11T16:15:08;28.50;1.00
5930;DHT22;2990;48.746;9.236;2022-08-11T16:18:02;28.50;1.00
5930;DHT22;2990;48.746;9.236;2022-08-11T16:20:29;28.40;1.00
5930;DHT22;2990;48.746;9.236;2022-08-11T16:22:59;28.40;1.00
5930;DHT22;2990;48.746;9.236;2022-08-11T16:25:27;28.30;1.00
5930;DHT22;2990;48.746;9.236;2022-08-11T16:27:59;28.20;1.00
5930;DHT22;2990;48.746;9.236;2022-08-11T16:30:32;28.10;1.00
5930;DHT22;2990;48.746;9.236;2022-08-11T16:32:59;28.10;1.00
5930;DHT22;2990;48.746;9.236;2022-08-11T16:35:26;28.10;1.00
5930;DHT22;2990;48.746;9.236;2022-08-11T16:38:12;28.10;1.00
5930;DHT22;2990;48.746;9.236;2022-08-11T16:40:59;28.10;1.00
5930;DHT22;2990;48.746;9.236;2022-08-11T16:43:28;28.30;1.00
5930;DHT22;2990;48.746;9.236;2022-08-11T16:46:16;28.40;1.00
5930;DHT22;2990;48.746;9.236;2022-08-11T16:49:09;28.40;1.00
5930;DHT22;2990;48.746;9.236;2022-08-11T16:51:36;28.10;1.00
5930;DHT22;2990;48.746;9.236;2022-08-11T16:54:02;28.00;1.00
5930;DHT22;2990;48.746;9.236;2022-08-11T16:56:41;27.70;1.00
5930;DHT22;2990;48.746;9.236;2022-08-11T16:59:13;27.60;1.00
5930;DHT22;2990;48.746;9.236;2022-08-11T17:01:52;27.30;1.00
5930;DHT22;2990;48.746;9.236;2022-08-11T17:04:49;27.30;1.00
5930;DHT22;2990;48.746;9.236;2022-08-11T17:07:37;27.10;1.00
5930;DHT22;2990;48.746;9.236;2022-08-11T17:10:40;27.10;1.00
5930;DHT22;2990;48.746;9.236;2022-08-11T17:13:32;27.10;1.00
5930;DHT22;2990;48.746;9.236;2022-08-11T17:16:02;27.00;1.00
5930;DHT22;2990;48.746;9.236;2022-08-11T17:18:43;27.00;1.00
5930;DHT22;2990;48.746;9.236;2022-08-11T17:21:19;26.80;1.00
5930;DHT22;2990;48.746;9.236;2022-08-11T17:24:02;26.80;1.00
5930;DHT22;2990;48.746;9.236;2022-08-11T17:26:32;26.80;1.00
5930;DHT22;2990;48.746;9.236;2022-08-11T17:31:48;26.70;1.00
5930;DHT22;2990;48.746;9.236;2022-08-11T17:34:34;26.80;1.00
5930;DHT22;2990;48.746;9.236;2022-08-11T17:37:19;26.60;1.00
5930;DHT22;2990;48.746;9.236;2022-08-11T17:39:46;26.60;1.00
5930;DHT22;2990;48.746;9.236;2022-08-11T17:42:13;26.60;1.00
5930;DHT22;2990;48.746;9.236;2022-08-11T17:44:59;26.60;1.00
5930;DHT22;2990;48.746;9.236;2022-08-11T17:47:44;26.60;1.00
5930;DHT22;2990;48.746;9.236;2022-08-11T17:50:29;26.50;1.00
5930;DHT22;2990;48.746;9.236;2022-08-11T17:52:55;26.50;1.00
5930;DHT22;2990;48.746;9.236;2022-08-11T17:55:40;26.40;1.00
5930;DHT22;2990;48.746;9.236;2022-08-11T17:58:25;26.40;1.00
5930;DHT22;2990;48.746;9.236;2022-08-11T18:01:11;26.30;1.00
5930;DHT22;2990;48.746;9.236;2022-08-11T18:03:39;26.30;1.00
5930;DHT22;2990;48.746;9.236;2022-08-11T18:06:08;26.20;1.00
5930;DHT22;2990;48.746;9.236;2022-08-11T18:08:38;26.10;1.00
5930;DHT22;2990;48.746;9.236;2022-08-11T18:11:24;26.10;1.00
5930;DHT22;2990;48.746;9.236;2022-08-11T18:14:12;26.00;1.00
5930;DHT22;2990;48.746;9.236;2022-08-11T18:16:57;26.00;1.00
5930;DHT22;2990;48.746;9.236;2022-08-11T18:19:41;25.90;1.00
5930;DHT22;2990;48.746;9.236;2022-08-11T18:22:37;25.80;1.00
5930;DHT22;2990;48.746;9.236;2022-08-11T18:25:26;25.70;1.00
5930;DHT22;2990;48.746;9.236;2022-08-11T18:28:12;25.60;1.00
5930;DHT22;2990;48.746;9.236;2022-08-11T18:30:59;25.60;1.00
5930;DHT22;2990;48.746;9.236;2022-08-11T18:33:50;25.50;1.00
5930;DHT22;2990;48.746;9.236;2022-08-11T18:36:41;25.40;1.00
5930;DHT22;2990;48.746;9.236;2022-08-11T18:39:32;25.30;1.00
5930;DHT22;2990;48.746;9.236;2022-08-11T18:42:18;25.30;1.00
5930;DHT22;2990;48.746;9.236;2022-08-11T18:45:10;25.10;1.00
5930;DHT22;2990;48.746;9.236;2022-08-11T18:47:59;25.00;1.00
5930;DHT22;2990;48.746;9.236;2022-08-11T18:50:45;24.90;1.00
5930;DHT22;2990;48.746;9.236;2022-08-11T18:53:30;24.70;1.00
5930;DHT22;2990;48.746;9.236;2022-08-11T18:56:18;24.70;1.00
5930;DHT22;2990;48.746;9.236;2022-08-11T18:59:03;24.60;1.00
5930;DHT22;2990;48.746;9.236;2022-08-11T19:01:50;24.50;1.00
5930;DHT22;2990;48.746;9.236;2022-08-11T19:04:35;24.50;1.00
5930;DHT22;2990;48.746;9.236;2022-08-11T19:07:21;24.50;1.00
5930;DHT22;2990;48.746;9.236;2022-08-11T19:10:07;24.40;1.00
5930;DHT22;2990;48.746;9.236;2022-08-11T19:12:52;24.40;1.00
5930;DHT22;2990;48.746;9.236;2022-08-11T19:15:38;24.40;1.00
5930;DHT22;2990;48.746;9.236;2022-08-11T19:18:23;24.40;1.00
5930;DHT22;2990;48.746;9.236;2022-08-11T19:21:09;24.20;1.00
5930;DHT22;2990;48.746;9.236;2022-08-11T19:23:55;24.30;1.00
5930;DHT22;2990;48.746;9.236;2022-08-11T19:26:42;24.20;1.00
5930;DHT22;2990;48.746;9.236;2022-08-11T19:29:27;24.20;1.00
5930;DHT22;2990;48.746;9.236;2022-08-11T19:32:13;24.20;1.00
5930;DHT22;2990;48.746;9.236;2022-08-11T19:34:59;24.10;1.00
5930;DHT22;2990;48.746;9.236;2022-08-11T19:37:44;24.10;1.00
5930;DHT22;2990;48.746;9.236;2022-08-11T19:40:29;24.00;1.00
5930;DHT22;2990;48.746;9.236;2022-08-11T19:43:16;23.90;1.00
5930;DHT22;2990;48.746;9.236;2022-08-11T19:46:02;23.90;1.00
5930;DHT22;2990;48.746;9.236;2022-08-11T19:48:50;23.90;1.00
5930;DHT22;2990;48.746;9.236;2022-08-11T19:51:35;23.80;1.00
5930;DHT22;2990;48.746;9.236;2022-08-11T19:54:25;23.80;1.00
5930;DHT22;2990;48.746;9.236;2022-08-11T19:57:10;23.80;1.00
5930;DHT22;2990;48.746;9.236;2022-08-11T19:59:55;23.80;1.00
5930;DHT22;2990;48.746;9.236;2022-08-11T20:02:39;23.80;1.00
5930;DHT22;2990;48.746;9.236;2022-08-11T20:05:23;23.80;1.00
5930;DHT22;2990;48.746;9.236;2022-08-11T20:08:07;23.70;1.00
5930;DHT22;2990;48.746;9.236;2022-08-11T20:10:52;23.60;1.00
5930;DHT22;2990;48.746;9.236;2022-08-11T20:13:40;23.60;1.00
5930;DHT22;2990;48.746;9.236;2022-08-11T20:16:26;23.60;1.00
5930;DHT22;2990;48.746;9.236;2022-08-11T20:19:12;23.60;1.00
5930;DHT22;2990;48.746;9.236;2022-08-11T20:21:57;23.60;1.00
5930;DHT22;2990;48.746;9.236;2022-08-11T20:24:43;23.60;1.00
5930;DHT22;2990;48.746;9.236;2022-08-11T20:27:27;23.60;1.00
5930;DHT22;2990;48.746;9.236;2022-08-11T20:30:12;23.60;1.00
5930;DHT22;2990;48.746;9.236;2022-08-11T20:32:57;23.60;1.00
5930;DHT22;2990;48.746;9.236;2022-08-11T20:35:41;23.50;1.00
5930;DHT22;2990;48.746;9.236;2022-08-11T20:38:29;23.50;1.00
5930;DHT22;2990;48.746;9.236;2022-08-11T20:41:15;23.50;1.00
5930;DHT22;2990;48.746;9.236;2022-08-11T20:44:02;23.60;1.00